createdAt,value
2019-03-12T00:00:00.000Z,0
2019-03-12T00:01:22.000Z,0
2019-03-12T00:02:45.000Z,0
2019-03-12T00:04:07.000Z,0
2019-03-12T00:05:29.000Z,0
2019-03-12T00:06:52.000Z,0
2019-03-12T00:08:14.000Z,0
2019-03-12T00:09:27.000Z,0
2019-03-12T00:10:40.000Z,0
2019-03-12T00:12:02.000Z,0
2019-03-12T00:13:24.000Z,0
2019-03-12T00:16:09.000Z,0
2019-03-12T00:17:31.000Z,0
2019-03-12T00:18:54.000Z,0
2019-03-12T00:20:16.000Z,0
2019-03-12T00:21:38.000Z,0
2019-03-12T00:23:01.000Z,0
2019-03-12T00:24:14.000Z,0
2019-03-12T00:25:27.000Z,0
2019-03-12T00:26:49.000Z,0
2019-03-12T00:28:11.000Z,0
2019-03-12T00:29:33.000Z,0
2019-03-12T00:30:56.000Z,0
2019-03-12T00:32:18.000Z,0
2019-03-12T00:33:40.000Z,0
2019-03-12T00:35:03.000Z,0
2019-03-12T00:36:25.000Z,0
2019-03-12T00:37:47.000Z,0
2019-03-12T00:39:00.000Z,0
2019-03-12T00:40:13.000Z,0
2019-03-12T00:41:36.000Z,0
2019-03-12T00:42:58.000Z,0
2019-03-12T00:44:20.000Z,0
2019-03-12T00:45:43.000Z,0
2019-03-12T00:47:05.000Z,0
2019-03-12T00:48:27.000Z,0
2019-03-12T00:49:50.000Z,0
2019-03-12T00:51:12.000Z,0
2019-03-12T00:52:34.000Z,0
2019-03-12T00:55:00.000Z,0
2019-03-12T00:57:45.000Z,0
2019-03-12T00:59:07.000Z,0
2019-03-12T01:00:29.000Z,0
2019-03-12T01:01:52.000Z,0
2019-03-12T01:03:14.000Z,0
2019-03-12T01:04:36.000Z,0
2019-03-12T01:05:59.000Z,0
2019-03-12T01:07:21.000Z,0
2019-03-12T01:08:34.000Z,0
2019-03-12T01:09:47.000Z,0
2019-03-12T01:11:09.000Z,0
2019-03-12T01:12:32.000Z,0
2019-03-12T01:13:54.000Z,0
2019-03-12T01:16:39.000Z,0
2019-03-12T01:18:01.000Z,0
2019-03-12T01:19:23.000Z,0
2019-03-12T01:20:45.000Z,0
2019-03-12T01:22:08.000Z,0
2019-03-12T01:23:21.000Z,0
2019-03-12T01:24:34.000Z,0
2019-03-12T01:25:56.000Z,0
2019-03-12T01:27:18.000Z,0
2019-03-12T01:28:41.000Z,0
2019-03-12T01:30:03.000Z,0
2019-03-12T01:31:25.000Z,0
2019-03-12T01:34:10.000Z,0
2019-03-12T01:35:32.000Z,0
2019-03-12T01:36:55.000Z,0
2019-03-12T01:38:08.000Z,0
2019-03-12T01:39:20.000Z,0
2019-03-12T01:40:43.000Z,0
2019-03-12T01:42:05.000Z,0
2019-03-12T01:43:27.000Z,0
2019-03-12T01:44:50.000Z,0
2019-03-12T01:46:12.000Z,0
2019-03-12T01:47:34.000Z,0
2019-03-12T01:48:57.000Z,0
2019-03-12T01:50:19.000Z,0
2019-03-12T01:51:41.000Z,0
2019-03-12T01:52:54.000Z,0
2019-03-12T01:54:07.000Z,0
2019-03-12T01:55:30.000Z,0
2019-03-12T01:56:52.000Z,0
2019-03-12T01:58:14.000Z,0
2019-03-12T01:59:37.000Z,0
2019-03-12T02:00:59.000Z,0
2019-03-12T02:02:21.000Z,0
2019-03-12T02:03:43.000Z,0
2019-03-12T02:05:06.000Z,0
2019-03-12T02:06:28.000Z,0
2019-03-12T02:08:54.000Z,0
2019-03-12T02:10:16.000Z,0
2019-03-12T02:11:39.000Z,0
2019-03-12T02:13:01.000Z,0
2019-03-12T02:14:23.000Z,0
2019-03-12T02:15:46.000Z,0
2019-03-12T02:17:08.000Z,0
2019-03-12T02:18:30.000Z,0
2019-03-12T02:19:53.000Z,0
2019-03-12T02:21:15.000Z,0
2019-03-12T02:22:28.000Z,0
2019-03-12T02:23:41.000Z,0
2019-03-12T02:25:03.000Z,0
2019-03-12T02:26:25.000Z,0
2019-03-12T02:27:48.000Z,0
2019-03-12T02:29:10.000Z,0
2019-03-12T02:30:32.000Z,0
2019-03-12T02:31:55.000Z,0
2019-03-12T02:33:17.000Z,0
2019-03-12T02:34:39.000Z,0
2019-03-12T02:36:02.000Z,0
2019-03-12T02:37:15.000Z,0
2019-03-12T02:38:28.000Z,0
2019-03-12T02:39:50.000Z,0
2019-03-12T02:41:12.000Z,0
2019-03-12T02:42:35.000Z,0
2019-03-12T02:45:19.000Z,0
2019-03-12T02:46:41.000Z,0
2019-03-12T02:49:26.000Z,0
2019-03-12T02:50:48.000Z,0
2019-03-12T02:52:01.000Z,0
2019-03-12T02:54:37.000Z,0
2019-03-12T02:55:59.000Z,0
2019-03-12T02:57:21.000Z,0
2019-03-12T02:58:44.000Z,0
2019-03-12T03:00:06.000Z,0
2019-03-12T03:01:28.000Z,0
2019-03-12T03:02:51.000Z,0
2019-03-12T03:04:13.000Z,0
2019-03-12T03:06:48.000Z,0
2019-03-12T03:08:01.000Z,0
2019-03-12T03:09:23.000Z,0
2019-03-12T03:10:46.000Z,0
2019-03-12T03:12:08.000Z,0
2019-03-12T03:13:30.000Z,0
2019-03-12T03:14:53.000Z,0
2019-03-12T03:16:15.000Z,0
2019-03-12T03:17:37.000Z,0
2019-03-12T03:19:00.000Z,0
2019-03-12T03:20:22.000Z,0
2019-03-12T03:22:48.000Z,0
2019-03-12T03:24:10.000Z,0
2019-03-12T03:25:33.000Z,0
2019-03-12T03:26:55.000Z,0
2019-03-12T03:29:40.000Z,0
2019-03-12T03:31:02.000Z,0
2019-03-12T03:32:24.000Z,0
2019-03-12T03:33:46.000Z,0
2019-03-12T03:35:09.000Z,0
2019-03-12T03:36:22.000Z,0
2019-03-12T03:37:35.000Z,0
2019-03-12T03:38:57.000Z,0
2019-03-12T03:40:19.000Z,0
2019-03-12T03:41:42.000Z,0
2019-03-12T03:43:04.000Z,0
2019-03-12T03:44:26.000Z,0
2019-03-12T03:45:49.000Z,0
2019-03-12T03:47:11.000Z,0
2019-03-12T03:48:33.000Z,0
2019-03-12T03:49:56.000Z,0
2019-03-12T03:51:08.000Z,0
2019-03-12T03:52:21.000Z,0
2019-03-12T03:53:44.000Z,0
2019-03-12T03:55:06.000Z,0
2019-03-12T03:56:28.000Z,0
2019-03-12T03:57:51.000Z,0
2019-03-12T03:59:13.000Z,0
2019-03-12T04:00:35.000Z,0
2019-03-12T04:01:58.000Z,0
2019-03-12T04:03:20.000Z,0
2019-03-12T04:04:42.000Z,0
2019-03-12T04:05:55.000Z,0
2019-03-12T04:07:08.000Z,0
2019-03-12T04:08:31.000Z,0
2019-03-12T04:09:53.000Z,0
2019-03-12T04:11:15.000Z,0
2019-03-12T04:12:37.000Z,0
2019-03-12T04:14:00.000Z,0
2019-03-12T04:15:22.000Z,0
2019-03-12T04:16:44.000Z,0
2019-03-12T04:18:07.000Z,0
2019-03-12T04:19:29.000Z,0
2019-03-12T04:20:42.000Z,0
2019-03-12T04:21:55.000Z,0
2019-03-12T04:23:17.000Z,0
2019-03-12T04:24:40.000Z,0
2019-03-12T04:26:02.000Z,0
2019-03-12T04:27:24.000Z,0
2019-03-12T04:28:47.000Z,0
2019-03-12T04:30:09.000Z,0
2019-03-12T04:31:31.000Z,0
2019-03-12T04:32:54.000Z,0
2019-03-12T04:34:16.000Z,0
2019-03-12T04:38:04.000Z,0
2019-03-12T04:39:26.000Z,0
2019-03-12T04:40:49.000Z,0
2019-03-12T04:42:11.000Z,0
2019-03-12T04:43:33.000Z,0
2019-03-12T04:44:56.000Z,0
2019-03-12T04:55:35.000Z,0
2019-03-12T04:56:58.000Z,0
2019-03-12T04:58:20.000Z,0
2019-03-12T04:59:42.000Z,0
2019-03-12T05:02:27.000Z,0
2019-03-12T05:03:49.000Z,0
2019-03-12T05:05:02.000Z,0
2019-03-12T05:06:15.000Z,16
2019-03-12T05:07:38.000Z,16
2019-03-12T05:09:00.000Z,12
2019-03-12T05:10:22.000Z,12
2019-03-12T05:11:45.000Z,16
2019-03-12T05:13:07.000Z,16
2019-03-12T05:14:29.000Z,16
2019-03-12T05:15:51.000Z,16
2019-03-12T05:17:14.000Z,16
2019-03-12T05:18:36.000Z,16
2019-03-12T05:19:49.000Z,16
2019-03-12T05:21:02.000Z,16
2019-03-12T05:22:24.000Z,12
2019-03-12T05:23:47.000Z,16
2019-03-12T05:25:09.000Z,16
2019-03-12T05:26:31.000Z,12
2019-03-12T05:27:54.000Z,12
2019-03-12T05:29:16.000Z,12
2019-03-12T05:30:38.000Z,12
2019-03-12T05:32:01.000Z,12
2019-03-12T05:33:23.000Z,12
2019-03-12T05:34:36.000Z,12
2019-03-12T05:35:49.000Z,12
2019-03-12T05:37:11.000Z,12
2019-03-12T05:38:33.000Z,12
2019-03-12T05:39:56.000Z,16
2019-03-12T05:41:18.000Z,16
2019-03-12T05:42:40.000Z,12
2019-03-12T05:44:03.000Z,16
2019-03-12T05:45:25.000Z,16
2019-03-12T05:46:47.000Z,16
2019-03-12T05:48:10.000Z,16
2019-03-12T05:49:23.000Z,16
2019-03-12T05:50:36.000Z,16
2019-03-12T05:51:58.000Z,16
2019-03-12T05:53:20.000Z,16
2019-03-12T05:54:43.000Z,16
2019-03-12T05:56:05.000Z,16
2019-03-12T05:57:27.000Z,16
2019-03-12T05:58:50.000Z,0
2019-03-12T06:00:12.000Z,0
2019-03-12T06:01:34.000Z,0
2019-03-12T06:02:56.000Z,0
2019-03-12T06:04:09.000Z,0
2019-03-12T06:05:22.000Z,0
2019-03-12T06:06:45.000Z,0
2019-03-12T06:08:07.000Z,0
2019-03-12T06:09:29.000Z,0
2019-03-12T06:10:52.000Z,0
2019-03-12T06:12:14.000Z,0
2019-03-12T06:13:36.000Z,0
2019-03-12T06:14:59.000Z,0
2019-03-12T06:16:21.000Z,0
2019-03-12T06:17:43.000Z,0
2019-03-12T06:18:56.000Z,0
2019-03-12T06:20:09.000Z,0
2019-03-12T06:21:31.000Z,0
2019-03-12T06:22:54.000Z,0
2019-03-12T06:24:16.000Z,0
2019-03-12T06:25:38.000Z,0
2019-03-12T06:27:01.000Z,0
2019-03-12T06:28:23.000Z,0
2019-03-12T06:29:45.000Z,0
2019-03-12T06:32:30.000Z,0
2019-03-12T06:33:43.000Z,0
2019-03-12T06:36:18.000Z,16
2019-03-12T06:37:41.000Z,8
2019-03-12T06:44:32.000Z,8
2019-03-12T06:45:54.000Z,8
2019-03-12T06:48:30.000Z,12
2019-03-12T06:56:34.000Z,12
2019-03-12T06:57:57.000Z,12
2019-03-12T06:59:19.000Z,12
2019-03-12T07:00:41.000Z,12
2019-03-12T07:02:04.000Z,16
2019-03-12T07:04:29.000Z,16
2019-03-12T07:07:14.000Z,16
2019-03-12T07:08:36.000Z,20
2019-03-12T07:11:21.000Z,20
2019-03-12T07:16:50.000Z,16
2019-03-12T07:20:39.000Z,20
2019-03-12T07:22:01.000Z,20
2019-03-12T07:23:23.000Z,20
2019-03-12T07:28:52.000Z,16
2019-03-12T07:30:15.000Z,20
2019-03-12T07:34:03.000Z,16
2019-03-12T07:38:10.000Z,16
2019-03-12T07:42:17.000Z,20
2019-03-12T07:47:37.000Z,16
2019-03-12T07:48:50.000Z,20
2019-03-12T07:50:12.000Z,20
2019-03-12T07:51:34.000Z,20
2019-03-12T07:52:57.000Z,24
2019-03-12T08:02:24.000Z,20
2019-03-12T08:04:59.000Z,24
2019-03-12T08:10:28.000Z,28
2019-03-12T08:13:13.000Z,28
2019-03-12T08:14:35.000Z,32
2019-03-12T08:18:23.000Z,32
2019-03-12T08:22:30.000Z,32
2019-03-12T08:38:39.000Z,44
2019-03-12T08:41:24.000Z,48
2019-03-12T08:53:26.000Z,72
2019-03-12T08:57:33.000Z,68
2019-03-12T09:01:31.000Z,56
2019-03-12T09:12:20.000Z,44
2019-03-12T09:15:05.000Z,32
2019-03-12T09:21:37.000Z,60
2019-03-12T09:25:44.000Z,44
2019-03-12T09:33:40.000Z,40
2019-03-12T09:45:51.000Z,44
2019-03-12T09:47:04.000Z,48
2019-03-12T09:52:33.000Z,44
2019-03-12T09:56:40.000Z,44
2019-03-12T09:59:25.000Z,44
2019-03-12T10:01:51.000Z,44
2019-03-12T10:04:35.000Z,40
2019-03-12T10:08:42.000Z,40
2019-03-12T10:10:05.000Z,44
2019-03-12T10:12:49.000Z,44
2019-03-12T10:15:25.000Z,40
2019-03-12T10:18:00.000Z,40
2019-03-12T10:22:07.000Z,48
2019-03-12T10:26:14.000Z,48
2019-03-12T10:27:36.000Z,48
2019-03-12T10:31:24.000Z,48
2019-03-12T10:35:31.000Z,40
2019-03-12T10:36:54.000Z,48
2019-03-12T10:47:33.000Z,48
2019-03-12T10:48:56.000Z,52
2019-03-12T10:50:18.000Z,52
2019-03-12T10:53:03.000Z,48
2019-03-12T10:54:25.000Z,52
2019-03-12T10:58:32.000Z,72
2019-03-12T10:59:45.000Z,68
2019-03-12T11:02:20.000Z,60
2019-03-12T11:06:27.000Z,60
2019-03-12T11:07:49.000Z,76
2019-03-12T11:10:34.000Z,72
2019-03-12T11:11:56.000Z,72
2019-03-12T11:13:19.000Z,60
2019-03-12T11:15:45.000Z,64
2019-03-12T11:17:07.000Z,60
2019-03-12T11:19:52.000Z,36
2019-03-12T11:21:14.000Z,40
2019-03-12T11:25:21.000Z,36
2019-03-12T11:28:05.000Z,36
2019-03-12T11:30:31.000Z,32
2019-03-12T11:31:54.000Z,32
2019-03-12T11:33:16.000Z,32
2019-03-12T11:34:38.000Z,60
2019-03-12T11:38:45.000Z,48
2019-03-12T11:41:30.000Z,52
2019-03-12T11:42:52.000Z,60
2019-03-12T11:46:40.996Z,64
2019-03-12T11:48:03.000Z,60
2019-03-12T11:56:17.000Z,52
2019-03-12T12:00:05.000Z,52
2019-03-12T12:01:27.000Z,40
2019-03-12T12:08:19.000Z,40
2019-03-12T12:12:26.000Z,40
2019-03-12T12:17:36.000Z,32
2019-03-12T12:18:59.000Z,56
2019-03-12T12:21:43.000Z,52
2019-03-12T12:23:06.000Z,48
2019-03-12T12:24:28.000Z,52
2019-03-12T12:25:50.000Z,28
2019-03-12T12:28:26.000Z,56
2019-03-12T12:31:01.000Z,52
2019-03-12T12:32:23.000Z,52
2019-03-12T12:35:08.000Z,56
2019-03-12T12:36:30.000Z,60
2019-03-12T12:39:15.000Z,60
2019-03-12T12:40:37.000Z,60
2019-03-12T12:43:12.000Z,68
2019-03-12T12:44:25.000Z,60
2019-03-12T12:48:32.000Z,60
2019-03-12T12:49:55.000Z,60
2019-03-12T12:52:39.000Z,56
2019-03-12T12:54:02.000Z,52
2019-03-12T12:55:24.000Z,52
2019-03-12T12:56:46.000Z,48
2019-03-12T12:57:59.000Z,52
2019-03-12T12:59:12.000Z,56
2019-03-12T13:00:34.000Z,28
2019-03-12T13:01:57.000Z,52
2019-03-12T13:03:19.000Z,48
2019-03-12T13:04:41.000Z,48
2019-03-12T13:06:04.000Z,48
2019-03-12T13:07:26.000Z,48
2019-03-12T13:08:48.000Z,48
2019-03-12T13:10:11.000Z,48
2019-03-12T13:11:33.000Z,48
2019-03-12T13:15:21.000Z,44
2019-03-12T13:16:43.000Z,48
2019-03-12T13:18:06.000Z,48
2019-03-12T13:19:28.000Z,48
2019-03-12T13:20:50.000Z,44
2019-03-12T13:22:13.000Z,44
2019-03-12T13:23:35.000Z,44
2019-03-12T13:24:57.000Z,44
2019-03-12T13:26:20.000Z,44
2019-03-12T13:27:33.000Z,44
2019-03-12T13:28:46.000Z,44
2019-03-12T13:31:30.000Z,44
2019-03-12T13:32:53.000Z,44
2019-03-12T13:34:15.000Z,48
2019-03-12T13:35:37.000Z,44
2019-03-12T13:36:59.000Z,44
2019-03-12T13:38:22.000Z,44
2019-03-12T13:39:44.000Z,48
2019-03-12T13:41:06.000Z,40
2019-03-12T13:42:19.000Z,36
2019-03-12T13:44:55.000Z,36
2019-03-12T13:46:17.000Z,36
2019-03-12T13:47:39.000Z,44
2019-03-12T13:49:02.000Z,48
2019-03-12T13:50:24.000Z,44
2019-03-12T13:51:46.000Z,40
2019-03-12T13:53:09.000Z,48
2019-03-12T13:54:31.000Z,48
2019-03-12T13:55:53.000Z,48
2019-03-12T13:57:06.000Z,48
2019-03-12T13:58:19.000Z,48
2019-03-12T13:59:41.000Z,48
2019-03-12T14:01:04.000Z,48
2019-03-12T14:02:26.000Z,48
2019-03-12T14:03:48.000Z,48
2019-03-12T14:05:11.000Z,44
2019-03-12T14:06:33.000Z,48
2019-03-12T14:07:55.000Z,44
2019-03-12T14:09:18.000Z,40
2019-03-12T14:10:40.000Z,44
2019-03-12T14:11:53.000Z,40
2019-03-12T14:13:06.000Z,44
2019-03-12T14:14:28.000Z,44
2019-03-12T14:17:13.000Z,40
2019-03-12T14:18:35.000Z,36
2019-03-12T14:21:20.000Z,40
2019-03-12T14:22:42.000Z,36
2019-03-12T14:25:27.000Z,40
2019-03-12T14:27:53.000Z,36
2019-03-12T14:30:37.000Z,40
2019-03-12T14:32:00.000Z,36
2019-03-12T14:33:22.000Z,36
2019-03-12T14:34:44.000Z,36
2019-03-12T14:36:07.000Z,36
2019-03-12T14:37:29.000Z,36
2019-03-12T14:38:51.000Z,36
2019-03-12T14:40:14.000Z,36
2019-03-12T14:42:39.000Z,32
2019-03-12T14:44:02.000Z,36
2019-03-12T14:45:24.000Z,36
2019-03-12T14:46:46.000Z,32
2019-03-12T14:49:31.000Z,32
2019-03-12T14:50:53.000Z,32
2019-03-12T14:52:16.000Z,32
2019-03-12T14:53:38.000Z,32
2019-03-12T14:55:00.000Z,32
2019-03-12T14:56:13.000Z,32
2019-03-12T14:57:26.000Z,32
2019-03-12T14:58:49.000Z,32
2019-03-12T15:01:33.000Z,32
2019-03-12T15:02:56.000Z,32
2019-03-12T15:04:18.000Z,32
2019-03-12T15:05:40.000Z,32
2019-03-12T15:07:02.000Z,32
2019-03-12T15:08:25.000Z,32
2019-03-12T15:09:47.000Z,32
2019-03-12T15:11:00.000Z,32
2019-03-12T15:12:13.000Z,32
2019-03-12T15:13:35.000Z,28
2019-03-12T15:14:58.000Z,32
2019-03-12T15:16:20.000Z,28
2019-03-12T15:17:42.000Z,28
2019-03-12T15:19:05.000Z,28
2019-03-12T15:20:27.000Z,28
2019-03-12T15:21:49.000Z,28
2019-03-12T15:23:12.000Z,20
2019-03-12T15:24:34.000Z,20
2019-03-12T15:27:00.000Z,20
2019-03-12T15:28:22.000Z,20
2019-03-12T15:32:29.000Z,20
2019-03-12T15:33:51.000Z,20
2019-03-12T15:35:14.000Z,24
2019-03-12T15:36:36.000Z,24
2019-03-12T15:37:58.000Z,20
2019-03-12T15:43:09.000Z,16
2019-03-12T15:47:16.000Z,20
2019-03-12T15:50:00.000Z,20
2019-03-12T15:54:07.000Z,20
2019-03-12T15:59:18.000Z,16
2019-03-12T16:00:40.000Z,16
2019-03-12T16:03:25.000Z,12
2019-03-12T16:04:47.000Z,12
2019-03-12T16:07:32.000Z,12
2019-03-12T16:08:54.000Z,12
2019-03-12T16:10:07.000Z,16
2019-03-12T16:14:05.000Z,12
2019-03-12T16:16:49.000Z,12
2019-03-12T16:18:12.000Z,12
2019-03-12T16:20:56.000Z,12
2019-03-12T16:22:19.000Z,12
2019-03-12T16:24:54.000Z,8
2019-03-12T16:26:07.000Z,8
2019-03-12T16:27:29.000Z,12
2019-03-12T16:30:14.000Z,8
2019-03-12T16:31:36.000Z,8
2019-03-12T16:32:58.000Z,8
2019-03-12T16:34:21.000Z,8
2019-03-12T16:35:43.000Z,8
2019-03-12T16:37:05.000Z,8
2019-03-12T16:38:28.000Z,8
2019-03-12T16:39:41.000Z,4
2019-03-12T16:40:54.000Z,4
2019-03-12T16:42:16.000Z,4
2019-03-12T16:43:38.000Z,8
2019-03-12T16:45:01.000Z,4
2019-03-12T16:46:23.000Z,4
2019-03-12T16:47:45.000Z,4
2019-03-12T16:49:08.000Z,4
2019-03-12T16:53:15.000Z,4
2019-03-12T16:57:03.000Z,4
2019-03-12T16:58:25.000Z,4
2019-03-12T16:59:47.000Z,4
2019-03-12T17:01:10.000Z,4
2019-03-12T17:02:32.000Z,0
2019-03-12T17:03:54.000Z,0
2019-03-12T17:05:17.000Z,0
2019-03-12T17:06:39.000Z,0
2019-03-12T17:08:01.000Z,0
2019-03-12T17:09:14.000Z,0
2019-03-12T17:10:27.000Z,0
2019-03-12T17:11:49.000Z,0
2019-03-12T17:14:34.000Z,0
2019-03-12T17:15:56.000Z,0
2019-03-12T17:17:19.000Z,0
2019-03-12T17:18:41.000Z,0
2019-03-12T17:20:03.000Z,0
2019-03-12T17:22:48.000Z,0
2019-03-12T17:24:01.000Z,0
2019-03-12T17:25:14.000Z,0
2019-03-12T17:27:59.000Z,0
2019-03-12T17:29:21.000Z,0
2019-03-12T17:30:43.000Z,0
2019-03-12T17:33:28.000Z,0
2019-03-12T17:36:12.000Z,0
2019-03-12T17:37:35.000Z,0
2019-03-12T17:41:23.000Z,12
2019-03-12T17:42:45.000Z,12
2019-03-12T17:45:30.000Z,12
2019-03-12T17:46:52.000Z,12
2019-03-12T17:48:15.000Z,12
2019-03-12T17:50:59.000Z,12
2019-03-12T18:05:46.000Z,8
2019-03-12T18:09:34.000Z,8
2019-03-12T18:12:19.000Z,8
2019-03-12T18:13:41.000Z,8
2019-03-12T18:16:26.000Z,8
2019-03-12T18:17:48.000Z,4
2019-03-12T18:19:10.000Z,4
2019-03-12T18:20:33.000Z,4
2019-03-12T18:21:55.000Z,4
2019-03-12T18:23:08.000Z,4
2019-03-12T18:24:21.000Z,4
2019-03-12T18:25:43.000Z,4
2019-03-12T18:27:06.000Z,4
2019-03-12T18:29:50.000Z,4
2019-03-12T18:31:13.000Z,4
2019-03-12T18:32:35.000Z,4
2019-03-12T18:33:57.000Z,4
2019-03-12T18:35:20.000Z,4
2019-03-12T18:36:42.000Z,4
2019-03-12T18:37:55.000Z,4
2019-03-12T18:39:08.000Z,4
2019-03-12T18:40:30.000Z,4
2019-03-12T18:43:15.000Z,4
2019-03-12T18:45:59.000Z,4
2019-03-12T18:47:22.000Z,4
2019-03-12T18:48:44.000Z,4
2019-03-12T18:51:29.000Z,4
2019-03-12T18:52:42.000Z,4
2019-03-12T18:53:55.000Z,4
2019-03-12T18:55:17.000Z,4
2019-03-12T18:56:39.000Z,4
2019-03-12T18:58:02.000Z,4
2019-03-12T19:00:46.000Z,4
2019-03-12T19:02:09.000Z,4
2019-03-12T19:03:31.000Z,4
2019-03-12T19:04:53.000Z,4
2019-03-12T19:06:15.000Z,4
2019-03-12T19:07:28.000Z,4
2019-03-12T19:10:04.000Z,4
2019-03-12T19:11:26.000Z,4
2019-03-12T19:12:48.000Z,4
2019-03-12T19:15:33.000Z,4
2019-03-12T19:16:55.000Z,4
2019-03-12T19:18:18.000Z,4
2019-03-12T19:19:40.000Z,4
2019-03-12T19:21:02.000Z,4
2019-03-12T19:22:15.000Z,4
2019-03-12T19:23:28.000Z,4
2019-03-12T19:24:50.000Z,4
2019-03-12T19:26:13.000Z,4
2019-03-12T19:27:35.000Z,4
2019-03-12T19:28:57.000Z,4
2019-03-12T19:30:20.000Z,4
2019-03-12T19:31:42.000Z,4
2019-03-12T19:35:49.000Z,4
2019-03-12T19:37:03.000Z,4
2019-03-12T19:38:15.000Z,4
2019-03-12T19:39:37.000Z,4
2019-03-12T19:41:00.000Z,4
2019-03-12T19:42:22.000Z,4
2019-03-12T19:43:44.000Z,4
2019-03-12T19:46:29.000Z,4
2019-03-12T19:47:51.000Z,4
2019-03-12T19:49:13.000Z,4
2019-03-12T19:50:36.000Z,4
2019-03-12T19:51:49.000Z,4
2019-03-12T19:54:24.000Z,4
2019-03-12T19:55:46.000Z,4
2019-03-12T19:58:31.000Z,4
2019-03-12T19:59:53.000Z,8
2019-03-12T20:01:16.000Z,4
2019-03-12T20:02:38.000Z,4
2019-03-12T20:05:22.000Z,4
2019-03-12T20:06:35.000Z,4
2019-03-12T20:07:48.000Z,4
2019-03-12T20:09:11.000Z,4
2019-03-12T20:10:33.000Z,4
2019-03-12T20:11:55.000Z,4
2019-03-12T20:13:18.000Z,4
2019-03-12T20:14:40.000Z,4
2019-03-12T20:16:02.000Z,4
2019-03-12T20:17:25.000Z,4
2019-03-12T20:20:09.000Z,4
2019-03-12T20:21:22.000Z,4
2019-03-12T20:23:57.000Z,4
2019-03-12T20:25:20.000Z,4
2019-03-12T20:26:42.000Z,4
2019-03-12T20:28:04.000Z,4
2019-03-12T20:29:27.000Z,4
2019-03-12T20:30:49.000Z,4
2019-03-12T20:32:11.000Z,4
2019-03-12T20:33:34.000Z,4
2019-03-12T20:34:56.000Z,4
2019-03-12T20:36:09.000Z,4
2019-03-12T20:37:22.000Z,4
2019-03-12T20:38:44.000Z,8
2019-03-12T20:40:06.000Z,4
2019-03-12T20:41:29.000Z,8
2019-03-12T20:42:51.000Z,8
2019-03-12T20:44:13.000Z,8
2019-03-12T20:45:36.000Z,8
2019-03-12T20:46:58.000Z,8
2019-03-12T20:48:20.000Z,8
2019-03-12T20:49:43.000Z,8
2019-03-12T20:50:56.000Z,8
2019-03-12T20:52:09.000Z,4
2019-03-12T20:53:31.000Z,4
2019-03-12T20:54:53.000Z,4
2019-03-12T20:56:16.000Z,4
2019-03-12T20:57:38.000Z,4
2019-03-12T20:59:00.000Z,4
2019-03-12T21:00:23.000Z,4
2019-03-12T21:03:07.000Z,4
2019-03-12T21:04:30.000Z,4
2019-03-12T21:05:43.000Z,4
2019-03-12T21:08:18.000Z,4
2019-03-12T21:09:40.000Z,4
2019-03-12T21:11:03.000Z,4
2019-03-12T21:12:25.000Z,4
2019-03-12T21:13:47.000Z,4
2019-03-12T21:15:09.000Z,4
2019-03-12T21:16:32.000Z,4
2019-03-12T21:20:29.000Z,4
2019-03-12T21:23:05.000Z,4
2019-03-12T21:25:49.000Z,4
2019-03-12T21:27:12.000Z,4
2019-03-12T21:28:34.000Z,4
2019-03-12T21:29:56.000Z,4
2019-03-12T21:32:41.000Z,4
2019-03-12T21:35:16.000Z,4
2019-03-12T21:36:29.000Z,4
2019-03-12T21:37:51.000Z,4
2019-03-12T21:39:14.000Z,4
2019-03-12T21:40:36.634Z,4
2019-03-12T21:41:58.000Z,4
2019-03-12T21:44:43.000Z,4
2019-03-12T21:46:05.000Z,4
2019-03-12T21:48:50.000Z,4
2019-03-12T21:51:16.000Z,4
2019-03-12T21:54:01.000Z,0
2019-03-12T21:55:23.000Z,0
2019-03-12T21:56:45.000Z,0
2019-03-12T21:58:08.000Z,0
2019-03-12T21:59:30.000Z,0
2019-03-12T22:00:52.000Z,0
2019-03-12T22:02:14.000Z,0
2019-03-12T22:03:37.000Z,0
2019-03-12T22:06:03.000Z,0
2019-03-12T22:08:47.000Z,0
2019-03-12T22:10:10.000Z,0
2019-03-12T22:11:32.000Z,0
2019-03-12T22:12:54.000Z,0
2019-03-12T22:15:39.000Z,0
2019-03-12T22:17:01.000Z,0
2019-03-12T22:18:24.000Z,0
2019-03-12T22:19:36.000Z,0
2019-03-12T22:20:49.000Z,0
2019-03-12T22:22:12.000Z,0
2019-03-12T22:23:34.000Z,0
2019-03-12T22:24:56.000Z,0
2019-03-12T22:26:19.000Z,0
2019-03-12T22:27:41.000Z,0
2019-03-12T22:29:03.000Z,0
2019-03-12T22:30:26.000Z,0
2019-03-12T22:31:48.000Z,0
2019-03-12T22:33:10.000Z,0
2019-03-12T22:34:23.000Z,0
2019-03-12T22:35:36.000Z,0
2019-03-12T22:36:58.000Z,0
2019-03-12T22:38:21.000Z,0
2019-03-12T22:39:43.000Z,0
2019-03-12T22:41:05.000Z,0
2019-03-12T22:42:28.000Z,0
2019-03-12T22:43:50.000Z,0
2019-03-12T22:45:12.000Z,0
2019-03-12T22:46:35.000Z,0
2019-03-12T22:47:57.000Z,0
2019-03-12T22:49:10.000Z,0
2019-03-12T22:50:23.000Z,0
2019-03-12T22:51:45.000Z,0
2019-03-12T22:53:08.000Z,0
2019-03-12T22:54:30.000Z,0
2019-03-12T22:55:52.000Z,0
2019-03-12T22:57:15.000Z,0
2019-03-12T22:59:59.000Z,0
2019-03-12T23:01:22.000Z,0
2019-03-12T23:02:44.000Z,0
2019-03-12T23:05:10.000Z,0
2019-03-12T23:06:32.000Z,0
2019-03-12T23:07:54.000Z,0
2019-03-12T23:09:17.000Z,0
2019-03-12T23:10:39.000Z,0
2019-03-12T23:12:01.000Z,0
2019-03-12T23:13:24.000Z,0
2019-03-12T23:14:46.000Z,0
2019-03-12T23:16:08.000Z,0
2019-03-12T23:17:31.000Z,0
2019-03-12T23:18:44.000Z,0
2019-03-12T23:19:57.000Z,0
2019-03-12T23:21:19.000Z,0
2019-03-12T23:22:41.000Z,0
2019-03-12T23:24:04.000Z,0
2019-03-12T23:25:26.000Z,0
2019-03-12T23:26:48.000Z,0
2019-03-12T23:28:10.000Z,0
2019-03-12T23:30:55.000Z,0
2019-03-12T23:32:17.000Z,0
2019-03-12T23:33:30.000Z,0
2019-03-12T23:34:43.000Z,0
2019-03-12T23:36:06.000Z,0
2019-03-12T23:37:28.000Z,0
2019-03-12T23:38:50.000Z,0
2019-03-12T23:40:13.000Z,0
2019-03-12T23:41:35.000Z,0
2019-03-12T23:44:20.000Z,0
2019-03-12T23:45:42.000Z,0
2019-03-12T23:48:17.000Z,0
2019-03-12T23:49:30.000Z,0
2019-03-12T23:50:52.000Z,0
2019-03-12T23:53:37.000Z,0
2019-03-12T23:54:59.000Z,0
2019-03-12T23:56:22.000Z,0
2019-03-12T23:57:44.000Z,0
2019-03-12T23:59:06.000Z,0
